Aérodrome :
LOGIN :

S'inscrire | Disclaimer

   EN    FR    IT 

 










Légende :    VFR   VFR Marginal   IFR   IFR Intensif   IFR Très Intensif
Visi : 
Plafond : 
>= 8 km
>= 3000ft
5 à 8 km
1000 à 3000 ft
1500m à 5 km
500 à 1000 ft
800 à 1500m
200 à 500 ft
< 800m
< 200 ft
Symboles :   Orages  Brouillard  Fortes neiges  Fortes précipitations  Vent > 20 kt
SIGMETs :   Divers  Orages  Givrage  Turbulence  Onde Orograph.  Cendres Volcan.







- Altitude de l'aérodrome : 408 ft
- Code IATA : FKB


EDSB - Karlsruhe Baden Baden

DERNIER METAR :
  • 181050Z 21003KT 9999 SCT016 02/M01 Q1020

METARs EXPIRÉS :
  • 181020Z 21005KT 180V240 9999 FEW013 SCT015 02/M01 Q1021
  • 180950Z 20005KT 150V230 9999 FEW012 SCT020 02/M00 Q1020
  • 180920Z 18005KT 9999 FEW020 SCT063 02/M00 Q1020
  • 180850Z 19004KT 8000 -SN FEW020 BKN027 BKN062 01/M00 Q1020
  • 180820Z 20004KT 9999 VCSH FEW019 SCT023 OVC055 01/M00 Q1020

TAF TAF EDSB
Valide du 18 à 06h jusqu'au 19 à 06h UTC


180500Z 1806/1906 22006KT 9999 BKN030
BECMG 1809/1812 VRB03KT
PROB30
TEMPO 1900/1906 1500 BCFG BKN004
Pas de NOTAMs connus pour ce terrain.



MET'MAP, la Météo Aéronautique d'un coup d'oeil ! - Copyright ORBIFLY Décembre 2007 - Disclaimer

ORBIFLY MET'MAP TEAM :

Programmation & Développement : Alexandra Zaïnal
Conception & Développement : Baudouin d'Aumeries
Co-Programmation & Développement : Marc-Olivier Méhu
Soutien technique & logistique : Manuel Goepfert

Contact : metmap@orbifly.com




SOURCES & CREDITS :

   NOAA